Time;durP1;ratioP1;P1;durP2;ratioP2;P2;SDS_P1;SDS_P2;PMS_P1;PMS_P2;Temp;Humidity;BMP_temperature;BMP_pressure;BME280_temperature;BME280_humidity;BME280_pressure;Samples;Min_cycle;Max_cycle;Signal;HPM_P1;HPM_P2
2023/06/20 00:01:58;;;;;;;;;;;;;;;-144.99;91.47;52209.63;5072399;28;20406;-66
2023/06/20 00:04:25;;;;;;;;;;;;;;;-144.99;91.47;52207.59;5071267;28;19959;-65
2023/06/20 00:06:51;;;;;;;;;;;;;;;-144.99;91.47;52232.03;5072094;28;19959;-64
2023/06/20 00:09:18;;;;;;;;;;;;;;;-144.99;91.40;52199.44;5071697;28;19976;-65
2023/06/20 00:11:44;;;;;;;;;;;;;;;-144.99;91.66;52197.41;5073430;28;19944;-65
2023/06/20 00:14:12;;;;;;;;;;;;;;;-144.99;91.28;52240.19;5075588;28;20426;-62
2023/06/20 00:16:40;;;;;;;;;;;;;;;-144.99;91.27;52211.66;5078822;28;19939;-61
2023/06/20 00:19:06;;;;;;;;;;;;;;;-144.99;91.79;52195.34;5078500;28;20398;-61
2023/06/20 00:21:33;;;;;;;;;;;;;;;-144.99;91.67;52223.88;5079271;28;19936;-64
2023/06/20 00:24:00;;;;;;;;;;;;;;;-144.99;91.80;52189.25;5084233;28;19960;-69
2023/06/20 00:26:26;;;;;;;;;;;;;;;-144.99;91.97;52189.25;5087498;28;20400;-69
2023/06/20 00:28:53;;;;;;;;;;;;;;;-144.99;91.91;52199.44;5090130;28;19935;-71
2023/06/20 00:31:20;;;;;;;;;;;;;;;-144.99;91.75;52191.28;5084749;28;19960;-71
2023/06/20 00:33:48;;;;;;;;;;;;;;;-144.99;92.03;52215.75;5090524;28;19924;-71
2023/06/20 00:36:14;;;;;;;;;;;;;;;-144.99;92.17;52211.66;5079726;28;20008;-64
2023/06/20 00:38:48;;;;;;;;;;;;;;;-144.99;92.12;52191.28;5078177;28;19953;-64
2023/06/20 00:41:15;;;;;;;;;;;;;;;-144.99;93.30;52195.34;5079565;28;19947;-65
2023/06/20 00:43:41;;;;;;;;;;;;;;;-144.99;92.61;52174.97;5075847;28;19962;-65
2023/06/20 00:46:08;;;;;;;;;;;;;;;-144.99;93.03;52187.19;5071025;28;19948;-65
2023/06/20 00:48:35;;;;;;;;;;;;;;;-144.99;92.82;52227.97;5071822;28;19969;-64
2023/06/20 00:51:03;;;;;;;;;;;;;;;-144.99;92.91;52217.78;5070894;28;19939;-64
2023/06/20 00:53:29;;;;;;;;;;;;;;;-144.99;93.33;52223.88;5069906;28;19967;-63
2023/06/20 00:55:56;;;;;;;;;;;;;;;-144.99;93.26;52234.09;5070215;28;20039;-66
2023/06/20 00:58:23;;;;;;;;;;;;;;;-144.99;93.12;52242.22;5068665;28;19938;-65
2023/06/20 01:00:49;;;;;;;;;;;;;;;-144.99;93.05;52227.97;5071758;28;19965;-65
2023/06/20 01:03:16;;;;;;;;;;;;;;;-144.99;93.14;52195.34;5071082;28;19967;-66
2023/06/20 01:05:45;;;;;;;;;;;;;;;-144.99;93.08;52211.66;5073122;28;19934;-67
2023/06/20 01:08:23;;;;;;;;;;;;;;;-144.99;93.69;52215.75;5078885;28;20372;-67
2023/06/20 01:10:53;;;;;;;;;;;;;;;-144.99;94.60;52191.28;5072792;28;19965;-65
2023/06/20 01:13:24;;;;;;;;;;;;;;;-144.99;94.17;52223.88;5071545;28;19934;-63
2023/06/20 01:15:56;;;;;;;;;;;;;;;-144.99;94.03;52215.75;5070058;28;19974;-62
2023/06/20 01:18:30;;;;;;;;;;;;;;;-144.99;94.15;52236.13;5072236;28;20327;-62
2023/06/20 01:21:02;;;;;;;;;;;;;;;-144.99;93.76;52207.59;5070844;28;19955;-62
2023/06/20 01:23:32;;;;;;;;;;;;;;;-144.99;93.29;52207.59;5069565;28;19959;-61
2023/06/20 01:26:02;;;;;;;;;;;;;;;-144.99;93.60;52219.81;5072159;28;19943;-64
2023/06/20 01:28:32;;;;;;;;;;;;;;;-144.99;95.39;52221.84;5070154;28;19968;-64
2023/06/20 01:31:04;;;;;;;;;;;;;;;-144.99;93.87;52234.09;5072822;28;20051;-67
2023/06/20 01:33:34;;;;;;;;;;;;;;;-144.99;93.77;52199.44;5077268;28;19943;-66
2023/06/20 01:36:02;;;;;;;;;;;;;;;-144.99;93.86;52244.28;5084107;28;19939;-67
2023/06/20 01:38:29;;;;;;;;;;;;;;;-144.99;94.01;52183.13;5073768;28;20020;-68
2023/06/20 01:41:00;;;;;;;;;;;;;;;-144.99;94.01;52227.97;5075205;28;19924;-69
2023/06/20 01:43:28;;;;;;;;;;;;;;;-144.99;93.98;52191.28;5073564;28;19979;-68
2023/06/20 01:45:56;;;;;;;;;;;;;;;-144.99;93.66;52215.75;5083509;28;20124;-71
2023/06/20 01:48:24;;;;;;;;;;;;;;;-144.99;93.40;52203.50;5085673;28;19940;-71
2023/06/20 01:50:53;;;;;;;;;;;;;;;-144.99;93.42;52191.28;5074533;28;19956;-65
2023/06/20 01:53:20;;;;;;;;;;;;;;;-144.99;93.61;52183.13;5077460;28;19943;-70
2023/06/20 01:55:48;;;;;;;;;;;;;;;-144.99;93.42;52205.53;5085851;28;19976;-69
2023/06/20 01:58:17;;;;;;;;;;;;;;;-144.99;93.38;52215.75;5077978;28;20465;-67
2023/06/20 02:00:44;;;;;;;;;;;;;;;-144.99;93.65;52234.09;5082434;28;19959;-69
2023/06/20 02:03:11;;;;;;;;;;;;;;;-144.99;93.45;52217.78;5083125;28;20411;-69
2023/06/20 02:05:39;;;;;;;;;;;;;;;-144.99;93.95;52199.44;5086898;28;19950;-69
2023/06/20 02:08:06;;;;;;;;;;;;;;;-144.99;93.72;52221.84;5083029;28;20444;-68
2023/06/20 02:10:33;;;;;;;;;;;;;;;-144.99;94.58;52183.13;5077368;28;20419;-69
2023/06/20 02:13:00;;;;;;;;;;;;;;;-144.99;94.06;52219.81;5078116;28;20021;-68
2023/06/20 02:15:29;;;;;;;;;;;;;;;-144.99;93.66;52199.44;5081528;28;19924;-68
2023/06/20 02:17:56;;;;;;;;;;;;;;;-144.99;93.49;52187.19;5085788;28;19938;-68
2023/06/20 02:20:23;;;;;;;;;;;;;;;-144.99;93.65;52183.13;5085590;28;19933;-69
2023/06/20 02:22:51;;;;;;;;;;;;;;;-144.99;93.77;52191.28;5080861;28;19939;-68
2023/06/20 02:25:21;;;;;;;;;;;;;;;-144.99;94.02;52187.19;5081638;28;19938;-68
2023/06/20 02:27:48;;;;;;;;;;;;;;;-144.99;94.77;52232.03;5083459;28;20237;-69
2023/06/20 02:30:16;;;;;;;;;;;;;;;-144.99;94.56;52174.97;5083185;28;20005;-68
2023/06/20 02:32:45;;;;;;;;;;;;;;;-144.99;94.77;52201.47;5086727;28;20013;-68
2023/06/20 02:35:13;;;;;;;;;;;;;;;-144.99;94.62;52215.75;5088025;28;19959;-68
2023/06/20 02:37:41;;;;;;;;;;;;;;;-144.99;94.31;52223.88;5087006;28;19945;-69
2023/06/20 02:40:09;;;;;;;;;;;;;;;-144.99;94.13;52234.09;5082645;28;19960;-68
2023/06/20 02:42:35;;;;;;;;;;;;;;;-144.99;94.45;52223.88;5080050;28;20400;-68
2023/06/20 02:45:02;;;;;;;;;;;;;;;-144.99;94.70;52187.19;5081039;28;19931;-69
2023/06/20 02:47:33;;;;;;;;;;;;;;;-144.99;94.64;52236.13;5086890;28;19924;-69
2023/06/20 02:50:07;;;;;;;;;;;;;;;-144.99;94.58;52179.06;5082696;28;19960;-68
2023/06/20 02:52:39;;;;;;;;;;;;;;;-144.99;94.55;52223.88;5088953;28;19948;-69
2023/06/20 02:55:10;;;;;;;;;;;;;;;-144.99;94.29;52246.31;5086340;28;20022;-68
2023/06/20 02:57:39;;;;;;;;;;;;;;;-144.99;94.49;52248.34;5082018;28;19955;-68
2023/06/20 03:00:09;;;;;;;;;;;;;;;-144.99;94.19;52240.19;5079157;28;19951;-68
2023/06/20 03:02:40;;;;;;;;;;;;;;;-144.99;94.41;52244.28;5081588;28;20451;-70
2023/06/20 03:05:10;;;;;;;;;;;;;;;-144.99;94.62;52207.59;5081099;28;19945;-69
2023/06/20 03:07:38;;;;;;;;;;;;;;;-144.99;94.92;52219.81;5087798;28;19928;-68
2023/06/20 03:10:06;;;;;;;;;;;;;;;-144.99;95.04;52195.34;5084856;28;19966;-68
2023/06/20 03:12:32;;;;;;;;;;;;;;;-144.99;95.30;52232.03;5077196;28;19953;-69
2023/06/20 03:14:59;;;;;;;;;;;;;;;-144.99;95.30;52264.66;5086798;28;19936;-69
2023/06/20 03:17:26;;;;;;;;;;;;;;;-144.99;95.47;52215.75;5081433;28;19939;-68
2023/06/20 03:19:53;;;;;;;;;;;;;;;-144.99;95.47;52166.81;5088527;28;19973;-68
2023/06/20 03:22:21;;;;;;;;;;;;;;;-144.99;95.63;52234.09;5082795;28;19937;-68
2023/06/20 03:24:49;;;;;;;;;;;;;;;-144.99;95.20;52238.16;5084551;28;19925;-69
2023/06/20 03:27:15;;;;;;;;;;;;;;;-144.99;95.23;52227.97;5080111;28;20369;-68
2023/06/20 03:29:42;;;;;;;;;;;;;;;-144.99;95.49;52219.81;5085309;28;19967;-67
2023/06/20 03:32:09;;;;;;;;;;;;;;;-144.99;95.41;52217.78;5088173;28;19942;-69
2023/06/20 03:34:35;;;;;;;;;;;;;;;-144.99;95.37;52185.16;5086751;28;19950;-68
2023/06/20 03:37:02;;;;;;;;;;;;;;;-144.99;95.27;52248.34;5081955;28;19940;-69
2023/06/20 03:39:30;;;;;;;;;;;;;;;-144.99;95.27;52201.47;5080849;28;19964;-69
2023/06/20 03:41:56;;;;;;;;;;;;;;;-144.99;95.20;52207.59;5085812;28;19957;-68
2023/06/20 03:44:23;;;;;;;;;;;;;;;-144.99;95.23;52213.69;5086154;28;19940;-69
2023/06/20 03:46:50;;;;;;;;;;;;;;;-144.99;95.33;52219.81;5085284;28;19940;-67
2023/06/20 03:49:16;;;;;;;;;;;;;;;-144.99;95.89;52207.59;5087493;28;19928;-68
2023/06/20 03:51:43;;;;;;;;;;;;;;;-144.99;95.38;52207.59;5083587;28;19943;-68
2023/06/20 03:54:09;;;;;;;;;;;;;;;-144.99;95.55;52179.06;5086429;28;19943;-67
2023/06/20 03:56:37;;;;;;;;;;;;;;;-144.99;95.50;52203.50;5078045;28;19935;-69
2023/06/20 03:59:04;;;;;;;;;;;;;;;-144.99;95.81;52209.63;5078516;28;20385;-69
2023/06/20 04:01:31;;;;;;;;;;;;;;;-144.99;95.96;52215.75;5087403;28;19956;-69
2023/06/20 04:03:57;;;;;;;;;;;;;;;-144.99;96.08;52215.75;5089459;28;20020;-69
2023/06/20 04:06:29;;;;;;;;;;;;;;;-144.99;96.20;52223.88;5089512;28;19940;-69
2023/06/20 04:08:56;;;;;;;;;;;;;;;-144.99;95.72;52195.34;5073228;28;19935;-69
2023/06/20 04:11:23;;;;;;;;;;;;;;;-144.99;95.63;52195.34;5080406;28;19978;-69
2023/06/20 04:13:51;;;;;;;;;;;;;;;-144.99;97.01;52236.13;5081803;28;19955;-69
2023/06/20 04:16:17;;;;;;;;;;;;;;;-144.99;97.37;52221.84;5082525;28;19939;-68
2023/06/20 04:18:44;;;;;;;;;;;;;;;-144.99;97.69;52221.84;5084658;28;19939;-69
2023/06/20 04:21:10;;;;;;;;;;;;;;;-144.99;97.12;52211.66;5090060;28;19956;-70
2023/06/20 04:23:37;;;;;;;;;;;;;;;-144.99;96.69;52211.66;5084612;28;20230;-70
2023/06/20 04:26:04;;;;;;;;;;;;;;;-144.99;99.64;52240.19;5079268;28;20115;-68
2023/06/20 04:28:30;;;;;;;;;;;;;;;-144.99;100.00;52272.81;5078822;28;19943;-68
2023/06/20 04:31:00;;;;;;;;;;;;;;;-144.99;100.00;52309.50;5084196;28;19931;-68
2023/06/20 04:33:26;;;;;;;;;;;;;;;-144.99;99.99;52232.03;5086613;28;19972;-68
2023/06/20 04:35:54;;;;;;;;;;;;;;;-144.99;100.00;52242.22;5085578;28;19947;-69
2023/06/20 04:38:21;;;;;;;;;;;;;;;-144.99;100.00;52260.56;5078560;28;19944;-69
2023/06/20 04:40:48;;;;;;;;;;;;;;;-144.99;100.00;52264.66;5087314;28;19924;-69
2023/06/20 04:43:14;;;;;;;;;;;;;;;-144.99;99.98;52203.50;5086969;28;19928;-69
2023/06/20 04:45:41;;;;;;;;;;;;;;;-144.99;97.24;52191.28;5081307;28;19935;-68
2023/06/20 04:48:09;;;;;;;;;;;;;;;-144.99;98.26;52213.69;5085923;28;19943;-69
2023/06/20 04:50:36;;;;;;;;;;;;;;;-144.99;96.38;52177.00;5086851;28;20023;-70
2023/06/20 04:53:03;;;;;;;;;;;;;;;-144.99;95.13;52199.44;5087468;28;20474;-70
2023/06/20 04:55:29;;;;;;;;;;;;;;;-144.99;94.57;52199.44;5092762;28;19999;-69
2023/06/20 04:57:56;;;;;;;;;;;;;;;-144.99;94.15;52227.97;5072237;28;19954;-70
2023/06/20 05:00:23;;;;;;;;;;;;;;;-144.99;97.38;52215.75;5085177;28;19932;-69
2023/06/20 05:02:50;;;;;;;;;;;;;;;-144.99;97.69;52236.13;5082975;28;20012;-69
2023/06/20 05:05:19;;;;;;;;;;;;;;;-144.99;99.33;52215.75;5086162;28;19924;-70
2023/06/20 05:07:46;;;;;;;;;;;;;;;-144.99;97.73;52195.34;5082666;28;20326;-68
2023/06/20 05:10:12;;;;;;;;;;;;;;;-144.99;95.45;52215.75;5079122;28;19964;-69
2023/06/20 05:12:39;;;;;;;;;;;;;;;-144.99;94.70;52166.81;5074247;28;19942;-69
2023/06/20 05:15:06;;;;;;;;;;;;;;;-144.99;93.97;52160.72;5084651;28;20020;-69
2023/06/20 05:17:33;;;;;;;;;;;;;;;-144.99;93.70;52219.81;5085707;28;19945;-69
2023/06/20 05:20:06;;;;;;;;;;;;;;;-144.99;94.73;52174.97;5081114;28;20028;-68
2023/06/20 05:22:34;;;;;;;;;;;;;;;-144.99;94.32;52183.13;5080381;28;20132;-68
2023/06/20 05:25:01;;;;;;;;;;;;;;;-144.99;93.98;52191.28;5085993;28;20212;-68
2023/06/20 05:27:28;;;;;;;;;;;;;;;-144.99;96.41;52232.03;5083049;28;19939;-68
2023/06/20 05:29:54;;;;;;;;;;;;;;;-144.99;93.47;52195.34;5084090;28;19958;-69
2023/06/20 05:32:21;;;;;;;;;;;;;;;-144.99;92.95;52187.19;5081504;28;20298;-68
2023/06/20 05:34:48;;;;;;;;;;;;;;;-144.99;92.51;52158.66;5083574;28;19929;-68
2023/06/20 05:37:14;;;;;;;;;;;;;;;-144.99;92.35;52177.00;5090105;28;19924;-69
2023/06/20 05:39:42;;;;;;;;;;;;;;;-144.99;91.96;52166.81;5095794;28;19963;-69
2023/06/20 05:42:09;;;;;;;;;;;;;;;-144.99;91.56;52185.16;5071517;28;19948;-68
2023/06/20 05:44:36;;;;;;;;;;;;;;;-144.99;91.21;52142.38;5084257;28;19938;-69
2023/06/20 05:47:03;;;;;;;;;;;;;;;-144.99;91.06;52166.81;5084700;28;20083;-69
2023/06/20 05:49:30;;;;;;;;;;;;;;;-144.99;90.84;52154.59;5082078;28;19961;-69
2023/06/20 05:51:57;;;;;;;;;;;;;;;-144.99;90.25;52183.13;5082772;28;20313;-68
2023/06/20 05:54:23;;;;;;;;;;;;;;;-144.99;90.30;52174.97;5079532;28;19964;-69
2023/06/20 05:56:52;;;;;;;;;;;;;;;-144.99;92.61;52174.97;5075392;28;19942;-69
2023/06/20 05:59:18;;;;;;;;;;;;;;;-144.99;90.28;52146.44;5079435;28;19951;-68
2023/06/20 06:01:45;;;;;;;;;;;;;;;-144.99;89.53;52156.63;5081138;28;20331;-68
2023/06/20 06:04:12;;;;;;;;;;;;;;;-144.99;89.67;52174.97;5081799;28;20220;-68
2023/06/20 06:06:38;;;;;;;;;;;;;;;-144.99;88.16;52170.91;5079998;28;20324;-68
2023/06/20 06:09:05;;;;;;;;;;;;;;;-144.99;87.37;52124.03;5076763;28;19938;-68
2023/06/20 06:11:32;;;;;;;;;;;;;;;-144.99;86.51;52136.25;5082129;28;20457;-68
2023/06/20 06:14:00;;;;;;;;;;;;;;;-144.99;85.67;52152.56;5078857;28;19979;-68
2023/06/20 06:16:27;;;;;;;;;;;;;;;-144.99;84.68;52166.81;5082293;28;19940;-68
2023/06/20 06:18:53;;;;;;;;;;;;;;;-144.99;83.01;52138.28;5085601;28;20424;-68
2023/06/20 06:21:20;;;;;;;;;;;;;;;-144.99;82.47;52109.75;5084002;28;19942;-68
2023/06/20 06:23:47;;;;;;;;;;;;;;;-144.99;82.13;52113.84;5083277;28;19962;-69
2023/06/20 06:26:14;;;;;;;;;;;;;;;-144.99;82.09;52126.06;5077041;28;19942;-69
2023/06/20 06:28:40;;;;;;;;;;;;;;;-144.99;81.75;52113.84;5081602;28;19946;-69
2023/06/20 06:31:11;;;;;;;;;;;;;;;-144.99;81.64;52089.38;5084852;28;19961;-69
2023/06/20 06:33:37;;;;;;;;;;;;;;;-144.99;80.84;52146.44;5070142;28;20014;-69
2023/06/20 06:36:05;;;;;;;;;;;;;;;-144.99;80.20;52162.75;5077039;28;19974;-69
2023/06/20 06:38:33;;;;;;;;;;;;;;;-144.99;80.30;52142.38;5070252;28;20300;-69
2023/06/20 06:40:59;;;;;;;;;;;;;;;-144.99;79.85;52097.53;5084330;28;19967;-69
2023/06/20 06:43:26;;;;;;;;;;;;;;;-144.99;79.37;52166.81;5079436;28;20036;-69
2023/06/20 06:45:53;;;;;;;;;;;;;;;-144.99;79.35;52134.22;5078369;28;19938;-68
2023/06/20 06:48:21;;;;;;;;;;;;;;;-144.99;79.08;52113.84;5077167;28;19964;-68
2023/06/20 06:50:47;;;;;;;;;;;;;;;-144.99;78.67;52130.13;5078988;28;19970;-68
2023/06/20 06:53:14;;;;;;;;;;;;;;;-144.99;78.01;52154.59;5080439;28;19956;-68
2023/06/20 06:55:45;;;;;;;;;;;;;;;-144.99;78.13;52162.75;5084043;28;19948;-68
2023/06/20 06:58:12;;;;;;;;;;;;;;;-144.99;76.53;52152.56;5076006;28;19964;-68
2023/06/20 07:00:38;;;;;;;;;;;;;;;-144.99;76.24;52146.44;5083698;28;19960;-69
2023/06/20 07:03:06;;;;;;;;;;;;;;;-144.99;76.25;52130.13;5081631;28;19971;-68
2023/06/20 07:05:34;;;;;;;;;;;;;;;-144.99;76.32;52158.66;5084675;28;20030;-69
2023/06/20 07:08:01;;;;;;;;;;;;;;;-144.99;77.09;52109.75;5083039;28;19965;-68
2023/06/20 07:10:27;;;;;;;;;;;;;;;-144.99;75.19;52134.22;5084706;28;19967;-67
2023/06/20 07:12:54;;;;;;;;;;;;;;;-144.99;73.96;52113.84;5076726;28;19942;-68
2023/06/20 07:15:20;;;;;;;;;;;;;;;-144.99;74.90;52126.06;5077081;28;19947;-69
2023/06/20 07:17:47;;;;;;;;;;;;;;;-144.99;74.67;52099.56;5079332;28;19954;-68
2023/06/20 07:20:14;;;;;;;;;;;;;;;-144.99;73.84;52121.97;5085117;28;20182;-68
2023/06/20 07:22:42;;;;;;;;;;;;;;;-144.99;73.45;52113.84;5081013;28;19973;-68
2023/06/20 07:25:09;;;;;;;;;;;;;;;-144.99;73.86;52109.75;5088615;28;20407;-69
2023/06/20 07:27:35;;;;;;;;;;;;;;;-144.99;72.80;52093.44;5084167;28;19945;-68
2023/06/20 07:30:03;;;;;;;;;;;;;;;-144.99;72.46;52097.53;5086657;28;19957;-67
2023/06/20 07:32:29;;;;;;;;;;;;;;;-144.99;71.78;52121.97;5088738;28;19961;-69
2023/06/20 07:34:56;;;;;;;;;;;;;;;-144.99;70.98;52066.97;5079383;28;19935;-68
2023/06/20 07:37:23;;;;;;;;;;;;;;;-144.99;70.35;52095.50;5088561;28;19948;-69
2023/06/20 07:39:51;;;;;;;;;;;;;;;-144.99;70.13;52093.44;5079914;28;19961;-68
2023/06/20 07:42:18;;;;;;;;;;;;;;;-144.99;70.17;52089.38;5092071;28;19962;-68
2023/06/20 07:44:44;;;;;;;;;;;;;;;-144.99;69.98;52073.06;5085116;28;19969;-67
2023/06/20 07:47:13;;;;;;;;;;;;;;;-144.99;69.85;52036.38;5085172;28;19938;-68
2023/06/20 07:49:39;;;;;;;;;;;;;;;-144.99;69.11;52032.31;5087643;28;20443;-68
2023/06/20 07:52:06;;;;;;;;;;;;;;;-144.99;68.93;52097.53;5079396;28;19928;-68
2023/06/20 07:54:33;;;;;;;;;;;;;;;-144.99;68.59;52064.91;5094951;28;20376;-68
2023/06/20 07:57:01;;;;;;;;;;;;;;;-144.99;67.68;52028.22;5076706;28;19936;-68
2023/06/20 07:59:27;;;;;;;;;;;;;;;-144.99;67.24;52044.53;5085697;28;19994;-68
2023/06/20 08:01:54;;;;;;;;;;;;;;;-144.99;66.93;52052.69;5087665;28;19946;-68
2023/06/20 08:04:21;;;;;;;;;;;;;;;-144.99;67.01;52093.44;5088363;28;19932;-68
2023/06/20 08:06:47;;;;;;;;;;;;;;;-144.99;66.84;52007.84;5086678;28;20323;-68
2023/06/20 08:09:14;;;;;;;;;;;;;;;-144.99;65.82;52036.38;5086589;28;19961;-68
2023/06/20 08:11:41;;;;;;;;;;;;;;;-144.99;65.36;52036.38;5083714;28;19968;-68
2023/06/20 08:14:11;;;;;;;;;;;;;;;-144.99;64.98;52044.53;5085991;28;19940;-69
2023/06/20 08:16:38;;;;;;;;;;;;;;;-144.99;64.64;52007.84;5082199;28;19943;-68
2023/06/20 08:19:05;;;;;;;;;;;;;;;-144.99;65.12;52036.38;5082535;28;20353;-68
2023/06/20 08:21:31;;;;;;;;;;;;;;;-144.99;64.92;52069.00;5076295;28;20031;-68
2023/06/20 08:23:58;;;;;;;;;;;;;;;-144.99;65.26;52024.16;5079225;28;20318;-68
2023/06/20 08:26:25;;;;;;;;;;;;;;;-144.99;65.00;52048.63;5088030;28;19942;-68
2023/06/20 08:28:51;;;;;;;;;;;;;;;-144.99;64.78;52050.66;5079703;28;20259;-68
2023/06/20 08:31:19;;;;;;;;;;;;;;;-144.99;64.57;52020.09;5088187;28;20333;-69
2023/06/20 08:33:46;;;;;;;;;;;;;;;-144.99;64.17;52026.19;5078915;28;19934;-68
2023/06/20 08:36:13;;;;;;;;;;;;;;;-144.99;65.36;52077.16;5087695;28;19937;-68
2023/06/20 08:38:39;;;;;;;;;;;;;;;-144.99;65.09;52060.84;5085321;28;19979;-69
2023/06/20 08:41:08;;;;;;;;;;;;;;;-144.99;65.41;52044.53;5081018;28;19951;-69
2023/06/20 08:43:35;;;;;;;;;;;;;;;-144.99;64.92;52069.00;5083691;28;20336;-68
2023/06/20 08:46:02;;;;;;;;;;;;;;;-144.99;64.60;51983.41;5080415;28;19950;-69
2023/06/20 08:48:30;;;;;;;;;;;;;;;-144.99;64.55;52028.22;5086767;28;19943;-69
2023/06/20 08:50:57;;;;;;;;;;;;;;;-144.99;64.08;52077.16;5087503;28;20420;-70
2023/06/20 08:53:24;;;;;;;;;;;;;;;-144.99;63.60;52024.16;5086718;28;20313;-69
2023/06/20 08:55:52;;;;;;;;;;;;;;;-144.99;63.87;52005.81;5083422;28;19940;-70
2023/06/20 08:58:19;;;;;;;;;;;;;;;-144.99;63.37;52007.84;5078288;28;19955;-71
2023/06/20 09:00:47;;;;;;;;;;;;;;;-144.99;63.60;52007.84;5080340;28;20333;-69
2023/06/20 09:03:14;;;;;;;;;;;;;;;-144.99;63.48;52003.78;5083428;28;19944;-70
2023/06/20 09:05:42;;;;;;;;;;;;;;;-144.99;63.04;52024.16;5085450;28;19960;-69
2023/06/20 09:08:11;;;;;;;;;;;;;;;-144.99;63.14;51997.66;5083758;28;20302;-70
2023/06/20 09:10:39;;;;;;;;;;;;;;;-144.99;63.10;51967.09;5083019;28;19965;-69
2023/06/20 09:13:06;;;;;;;;;;;;;;;-144.99;62.91;51987.47;5085881;28;19972;-69
2023/06/20 09:15:33;;;;;;;;;;;;;;;-144.99;62.92;51991.56;5077738;28;20029;-69
2023/06/20 09:18:00;;;;;;;;;;;;;;;-144.99;62.89;51999.69;5086399;28;19945;-67
2023/06/20 09:20:27;;;;;;;;;;;;;;;-144.99;63.15;52003.78;5086437;28;19962;-69
2023/06/20 09:22:56;;;;;;;;;;;;;;;-144.99;62.53;51975.25;5080006;28;19938;-68
2023/06/20 09:25:23;;;;;;;;;;;;;;;-144.99;62.85;51995.63;5072426;28;19939;-68
2023/06/20 09:27:50;;;;;;;;;;;;;;;-144.99;62.51;51987.47;5079776;28;20386;-68
2023/06/20 09:30:17;;;;;;;;;;;;;;;-144.99;62.37;51979.31;5080653;28;19964;-70
2023/06/20 09:32:44;;;;;;;;;;;;;;;-144.99;62.36;51973.22;5082756;28;20342;-69
2023/06/20 09:35:11;;;;;;;;;;;;;;;-144.99;62.86;51979.31;5077320;28;19938;-69
2023/06/20 09:37:38;;;;;;;;;;;;;;;-144.99;62.58;51987.47;5085378;28;19957;-68
2023/06/20 09:40:13;;;;;;;;;;;;;;;-144.99;61.40;51934.50;5085201;28;19956;-70
2023/06/20 09:42:40;;;;;;;;;;;;;;;-144.99;61.99;51942.63;5082794;28;19935;-69
2023/06/20 09:45:07;;;;;;;;;;;;;;;-144.99;62.16;51954.88;5077819;28;19971;-69
2023/06/20 09:47:35;;;;;;;;;;;;;;;-144.99;61.65;51950.78;5084933;28;19996;-70
2023/06/20 09:50:05;;;;;;;;;;;;;;;-144.99;61.61;51928.38;5083431;28;20025;-69
2023/06/20 09:52:33;;;;;;;;;;;;;;;-144.99;61.55;51958.94;5077170;28;19931;-69
2023/06/20 09:55:01;;;;;;;;;;;;;;;-144.99;61.29;51954.88;5082836;28;19965;-69
2023/06/20 09:57:33;;;;;;;;;;;;;;;-144.99;61.20;51952.81;5075021;28;19976;-69
2023/06/20 10:00:00;;;;;;;;;;;;;;;-144.99;61.02;51963.03;5077161;28;19959;-69
2023/06/20 10:02:28;;;;;;;;;;;;;;;-144.99;61.14;51938.56;5082854;28;19955;-69
2023/06/20 10:04:55;;;;;;;;;;;;;;;-144.99;60.63;51946.72;5077210;28;20304;-69
2023/06/20 10:07:22;;;;;;;;;;;;;;;-144.99;60.91;51926.34;5085079;28;19943;-70
2023/06/20 10:09:51;;;;;;;;;;;;;;;-144.99;60.55;51893.72;5088006;28;20118;-69
2023/06/20 10:12:18;;;;;;;;;;;;;;;-144.99;60.69;51958.94;5087192;28;19959;-69
2023/06/20 10:14:46;;;;;;;;;;;;;;;-144.99;61.32;51938.56;5076755;28;19947;-69
2023/06/20 10:17:14;;;;;;;;;;;;;;;-144.99;61.27;51967.09;5086319;28;19958;-69
2023/06/20 10:19:48;;;;;;;;;;;;;;;-144.99;59.80;51879.47;5077369;28;19961;-69
2023/06/20 10:22:15;;;;;;;;;;;;;;;-144.99;59.33;51848.91;5079356;28;20386;-69
2023/06/20 10:24:41;;;;;;;;;;;;;;;-144.99;59.14;51855.00;5079968;28;20287;-69
2023/06/20 10:27:08;;;;;;;;;;;;;;;-144.99;58.99;51873.34;5081553;28;19994;-69
2023/06/20 10:29:39;;;;;;;;;;;;;;;-144.99;58.87;51897.81;5080367;28;19962;-70
2023/06/20 10:32:09;;;;;;;;;;;;;;;-144.99;58.61;51857.03;5080227;28;20044;-69
2023/06/20 10:34:36;;;;;;;;;;;;;;;-144.99;58.67;51901.88;5074615;28;19945;-69
2023/06/20 10:37:10;;;;;;;;;;;;;;;-144.99;58.71;51893.72;5080160;28;20222;-69
2023/06/20 10:39:37;;;;;;;;;;;;;;;-144.99;58.63;51938.56;5083560;28;20488;-69
2023/06/20 10:42:07;;;;;;;;;;;;;;;-144.99;58.67;51922.25;5072778;28;19928;-69
2023/06/20 10:44:33;;;;;;;;;;;;;;;-144.99;58.74;51901.88;5075988;28;20307;-70
2023/06/20 10:47:00;;;;;;;;;;;;;;;-144.99;58.52;51901.88;5083651;28;19939;-69
2023/06/20 10:49:28;;;;;;;;;;;;;;;-144.99;59.56;51975.25;5095233;28;19966;-70
2023/06/20 10:51:55;;;;;;;;;;;;;;;-144.99;59.73;51938.56;5090367;28;19951;-70
2023/06/20 10:54:22;;;;;;;;;;;;;;;-144.99;60.06;51991.56;5085423;28;20017;-69
2023/06/20 10:56:49;;;;;;;;;;;;;;;-144.99;60.81;52011.94;5088635;28;20381;-68
2023/06/20 10:59:16;;;;;;;;;;;;;;;-144.99;61.07;51981.38;5087520;28;20052;-68
2023/06/20 11:01:43;;;;;;;;;;;;;;;-144.99;61.56;52024.16;5088379;28;19924;-69
2023/06/20 11:04:10;;;;;;;;;;;;;;;-144.99;61.36;52007.84;5083700;28;20045;-69
2023/06/20 11:06:38;;;;;;;;;;;;;;;-144.99;61.90;52020.09;5082809;28;20052;-69
2023/06/20 11:09:05;;;;;;;;;;;;;;;-144.99;61.83;52040.47;5088495;28;19947;-70
2023/06/20 11:11:33;;;;;;;;;;;;;;;-144.99;62.40;52016.00;5087543;28;19928;-69
2023/06/20 11:14:09;;;;;;;;;;;;;;;-144.99;62.52;52044.53;5086327;28;19985;-69
2023/06/20 11:16:36;;;;;;;;;;;;;;;-144.99;62.76;52052.69;5089023;28;19949;-70
2023/06/20 11:19:03;;;;;;;;;;;;;;;-144.99;63.49;52048.63;5088809;28;20138;-69
2023/06/20 11:21:29;;;;;;;;;;;;;;;-144.99;63.33;52024.16;5088849;28;19928;-69
2023/06/20 11:24:00;;;;;;;;;;;;;;;-144.99;63.42;52054.72;5088559;28;19935;-69
2023/06/20 11:26:28;;;;;;;;;;;;;;;-144.99;63.88;52048.63;5089202;28;20373;-69
2023/06/20 11:28:58;;;;;;;;;;;;;;;-144.99;63.31;52036.38;5083834;28;19964;-69
2023/06/20 11:31:25;;;;;;;;;;;;;;;-144.99;63.79;52032.31;5080856;28;19942;-68
2023/06/20 11:34:02;;;;;;;;;;;;;;;-144.99;64.30;52036.38;5081022;28;19931;-68
2023/06/20 11:36:31;;;;;;;;;;;;;;;-144.99;63.87;52060.84;5090634;28;20030;-68
2023/06/20 11:39:00;;;;;;;;;;;;;;;-144.99;63.78;52054.72;5079616;28;20395;-69
2023/06/20 11:41:30;;;;;;;;;;;;;;;-144.99;64.67;52060.84;5088855;28;20431;-69
2023/06/20 11:43:56;;;;;;;;;;;;;;;-144.99;63.87;52036.38;5082782;28;19939;-68
2023/06/20 11:46:23;;;;;;;;;;;;;;;-144.99;64.13;52007.84;5088137;28;19946;-68
2023/06/20 11:48:50;;;;;;;;;;;;;;;-144.99;65.03;52022.13;5085692;28;20376;-70
2023/06/20 11:51:17;;;;;;;;;;;;;;;-144.99;65.19;52048.63;5088768;28;20113;-69
2023/06/20 11:53:43;;;;;;;;;;;;;;;-144.99;65.09;52060.84;5082527;28;19928;-69
2023/06/20 11:56:12;;;;;;;;;;;;;;;-144.99;65.45;52046.56;5086114;28;19949;-69
2023/06/20 11:58:39;;;;;;;;;;;;;;;-144.99;65.56;52064.91;5079188;28;20692;-68
2023/06/20 12:01:09;;;;;;;;;;;;;;;-144.99;65.81;52069.00;5083024;28;19963;-69
2023/06/20 12:03:36;;;;;;;;;;;;;;;-144.99;65.46;52040.47;5083556;28;19997;-69
2023/06/20 12:06:03;;;;;;;;;;;;;;;-144.99;65.57;52073.06;5085465;28;19935;-69
2023/06/20 12:08:33;;;;;;;;;;;;;;;-144.99;65.86;52036.38;5089004;28;20399;-69
2023/06/20 12:11:00;;;;;;;;;;;;;;;-144.99;66.57;52081.22;5088040;28;19955;-69
2023/06/20 12:13:30;;;;;;;;;;;;;;;-144.99;65.66;52040.47;5085578;28;19960;-69
2023/06/20 12:15:57;;;;;;;;;;;;;;;-144.99;65.36;52042.50;5083677;28;19947;-70
2023/06/20 12:18:24;;;;;;;;;;;;;;;-144.99;65.39;52026.19;5080495;28;20008;-68
2023/06/20 12:20:51;;;;;;;;;;;;;;;-144.99;65.02;52028.22;5084079;28;19950;-69
2023/06/20 12:23:18;;;;;;;;;;;;;;;-144.99;65.03;52032.31;5087440;28;20047;-68
2023/06/20 12:25:45;;;;;;;;;;;;;;;-144.99;64.96;52024.16;5088072;28;19950;-68
2023/06/20 12:28:11;;;;;;;;;;;;;;;-144.99;65.12;52024.16;5080387;28;19942;-67